WBSB/BWN METAR and TAF weather

Enter ICAO airport designator
Station Type Date Time Source
WBSB METAR 2019/10/15 19:00 UTC NOAA

WBSB 151900Z 19005KT 8000 -TSRA SCT014 FEW015CB BKN140 25/24 Q1009 NOSIG


Station Type Date Time Source
WBSB Decoded METAR 2019/10/15 19:00 UTC NOAA

Brunei Airport, Brunei (WBSB) 04-56N 114-56E 15M
Oct 15, 2019 - 03:00 PM EDT / 2019.10.15 1900 UTC
Wind: from the S (190 degrees) at 6 MPH (5 KT):0
Visibility: 4 mile(s):0
Sky conditions: mostly cloudy
Weather: light rain with thunder; Cumulonimbus clouds observed
Temperature: 77 F (25 C)
Dew Point: 75 F (24 C)
Relative Humidity: 94%
Pressure (altimeter): 29.80 in. Hg (1009 hPa)
ob: WBSB 151900Z 19005KT 8000 -TSRA SCT014 FEW015CB BKN140 25/24 Q1009 NOSIG
cycle: 19

Station Type Date Time Source
WBSB TAF 2019/10/15 18:08 UTC NOAA

TAF WBSB 151700Z 1518/1700 21003KT 9999 FEW015 BKN140
BECMG 1603/1605 34009KT SCT016 FEW017CB
TEMPO 1608/1612 4000 TSRA SCT015 FEW016CB

Example: see airport list